sensor_id;sensor_type;location;lat;lon;timestamp;temperature;humidity
23188;DHT22;11762;59.878;17.686;2023-09-07T00:00:14;9.30;99.90
23188;DHT22;11762;59.878;17.686;2023-09-07T00:02:42;9.20;99.90
23188;DHT22;11762;59.878;17.686;2023-09-07T00:05:09;8.80;99.90
23188;DHT22;11762;59.878;17.686;2023-09-07T00:07:36;8.80;99.90
23188;DHT22;11762;59.878;17.686;2023-09-07T00:10:04;8.80;99.90
23188;DHT22;11762;59.878;17.686;2023-09-07T00:12:31;8.80;99.90
23188;DHT22;11762;59.878;17.686;2023-09-07T00:14:59;8.90;99.90
23188;DHT22;11762;59.878;17.686;2023-09-07T00:17:26;8.90;99.90
23188;DHT22;11762;59.878;17.686;2023-09-07T00:19:55;9.00;99.90
23188;DHT22;11762;59.878;17.686;2023-09-07T00:22:23;8.70;99.90
23188;DHT22;11762;59.878;17.686;2023-09-07T00:24:51;8.60;99.90
23188;DHT22;11762;59.878;17.686;2023-09-07T00:27:18;8.60;99.90
23188;DHT22;11762;59.878;17.686;2023-09-07T00:29:45;8.60;99.90
23188;DHT22;11762;59.878;17.686;2023-09-07T00:32:12;8.70;99.90
23188;DHT22;11762;59.878;17.686;2023-09-07T00:34:39;8.80;99.90
23188;DHT22;11762;59.878;17.686;2023-09-07T00:37:07;8.80;99.90
23188;DHT22;11762;59.878;17.686;2023-09-07T00:39:34;8.80;99.90
23188;DHT22;11762;59.878;17.686;2023-09-07T00:42:01;8.70;99.90
23188;DHT22;11762;59.878;17.686;2023-09-07T00:44:28;8.80;99.90
23188;DHT22;11762;59.878;17.686;2023-09-07T00:46:56;8.80;99.90
23188;DHT22;11762;59.878;17.686;2023-09-07T00:49:24;9.00;99.90
23188;DHT22;11762;59.878;17.686;2023-09-07T00:51:52;9.00;99.90
23188;DHT22;11762;59.878;17.686;2023-09-07T00:54:20;9.20;99.90
23188;DHT22;11762;59.878;17.686;2023-09-07T00:56:47;9.20;99.90
23188;DHT22;11762;59.878;17.686;2023-09-07T00:59:14;9.20;99.90
23188;DHT22;11762;59.878;17.686;2023-09-07T01:01:41;9.20;99.90
23188;DHT22;11762;59.878;17.686;2023-09-07T01:04:08;9.20;99.90
23188;DHT22;11762;59.878;17.686;2023-09-07T01:06:39;9.20;99.90
23188;DHT22;11762;59.878;17.686;2023-09-07T01:09:14;9.10;99.90
23188;DHT22;11762;59.878;17.686;2023-09-07T01:11:44;9.10;99.90
23188;DHT22;11762;59.878;17.686;2023-09-07T01:14:11;9.10;99.90
23188;DHT22;11762;59.878;17.686;2023-09-07T01:16:38;9.00;99.90
23188;DHT22;11762;59.878;17.686;2023-09-07T01:19:06;9.00;99.90
23188;DHT22;11762;59.878;17.686;2023-09-07T01:21:35;9.00;99.90
23188;DHT22;11762;59.878;17.686;2023-09-07T01:24:05;9.10;99.90
23188;DHT22;11762;59.878;17.686;2023-09-07T01:26:33;9.10;99.90
23188;DHT22;11762;59.878;17.686;2023-09-07T01:29:00;9.10;99.90
23188;DHT22;11762;59.878;17.686;2023-09-07T01:31:28;9.20;99.90
23188;DHT22;11762;59.878;17.686;2023-09-07T01:33:55;9.20;99.90
23188;DHT22;11762;59.878;17.686;2023-09-07T01:36:22;9.20;99.90
23188;DHT22;11762;59.878;17.686;2023-09-07T01:38:50;9.30;99.90
23188;DHT22;11762;59.878;17.686;2023-09-07T01:41:17;9.10;99.90
23188;DHT22;11762;59.878;17.686;2023-09-07T01:43:44;8.90;99.90
23188;DHT22;11762;59.878;17.686;2023-09-07T01:46:11;8.90;99.90
23188;DHT22;11762;59.878;17.686;2023-09-07T01:48:38;9.00;99.90
23188;DHT22;11762;59.878;17.686;2023-09-07T01:51:05;9.10;99.90
23188;DHT22;11762;59.878;17.686;2023-09-07T01:53:32;9.20;99.90
23188;DHT22;11762;59.878;17.686;2023-09-07T01:56:00;9.20;99.90
23188;DHT22;11762;59.878;17.686;2023-09-07T01:58:27;9.20;99.90
23188;DHT22;11762;59.878;17.686;2023-09-07T02:00:57;9.20;99.90
23188;DHT22;11762;59.878;17.686;2023-09-07T02:03:24;9.20;99.90
23188;DHT22;11762;59.878;17.686;2023-09-07T02:05:52;9.10;99.90
23188;DHT22;11762;59.878;17.686;2023-09-07T02:08:19;8.80;99.90
23188;DHT22;11762;59.878;17.686;2023-09-07T02:10:46;8.80;99.90
23188;DHT22;11762;59.878;17.686;2023-09-07T02:13:15;8.80;99.90
23188;DHT22;11762;59.878;17.686;2023-09-07T02:15:42;8.90;99.90
23188;DHT22;11762;59.878;17.686;2023-09-07T02:18:09;9.00;99.90
23188;DHT22;11762;59.878;17.686;2023-09-07T02:20:36;9.00;99.90
23188;DHT22;11762;59.878;17.686;2023-09-07T02:23:03;9.00;99.90
23188;DHT22;11762;59.878;17.686;2023-09-07T02:25:30;9.00;99.90
23188;DHT22;11762;59.878;17.686;2023-09-07T02:27:57;9.10;99.90
23188;DHT22;11762;59.878;17.686;2023-09-07T02:30:25;9.10;99.90
23188;DHT22;11762;59.878;17.686;2023-09-07T02:32:52;9.00;99.90
23188;DHT22;11762;59.878;17.686;2023-09-07T02:35:19;9.00;99.90
23188;DHT22;11762;59.878;17.686;2023-09-07T02:37:46;9.00;99.90
23188;DHT22;11762;59.878;17.686;2023-09-07T02:40:13;8.90;99.90
23188;DHT22;11762;59.878;17.686;2023-09-07T02:42:41;9.00;99.90
23188;DHT22;11762;59.878;17.686;2023-09-07T02:45:11;9.10;99.90
23188;DHT22;11762;59.878;17.686;2023-09-07T02:47:40;9.10;99.90
23188;DHT22;11762;59.878;17.686;2023-09-07T02:50:07;9.10;99.90
23188;DHT22;11762;59.878;17.686;2023-09-07T02:52:34;9.20;99.90
23188;DHT22;11762;59.878;17.686;2023-09-07T02:55:01;9.20;99.90
23188;DHT22;11762;59.878;17.686;2023-09-07T02:57:29;9.30;99.90
23188;DHT22;11762;59.878;17.686;2023-09-07T02:59:57;9.40;99.90
23188;DHT22;11762;59.878;17.686;2023-09-07T03:02:23;9.40;99.90
23188;DHT22;11762;59.878;17.686;2023-09-07T03:04:54;9.40;99.90
23188;DHT22;11762;59.878;17.686;2023-09-07T03:07:24;9.40;99.90
23188;DHT22;11762;59.878;17.686;2023-09-07T03:09:52;9.40;99.90
23188;DHT22;11762;59.878;17.686;2023-09-07T03:12:19;9.50;99.90
23188;DHT22;11762;59.878;17.686;2023-09-07T03:14:46;9.50;99.90
23188;DHT22;11762;59.878;17.686;2023-09-07T03:17:14;9.50;99.90
23188;DHT22;11762;59.878;17.686;2023-09-07T03:19:41;9.50;99.90
23188;DHT22;11762;59.878;17.686;2023-09-07T03:22:10;9.50;99.90
23188;DHT22;11762;59.878;17.686;2023-09-07T03:24:37;9.50;99.90
23188;DHT22;11762;59.878;17.686;2023-09-07T03:27:04;9.40;99.90
23188;DHT22;11762;59.878;17.686;2023-09-07T03:29:32;9.20;99.90
23188;DHT22;11762;59.878;17.686;2023-09-07T03:32:01;9.20;99.90
23188;DHT22;11762;59.878;17.686;2023-09-07T03:34:28;9.20;99.90
23188;DHT22;11762;59.878;17.686;2023-09-07T03:36:55;9.20;99.90
23188;DHT22;11762;59.878;17.686;2023-09-07T03:39:24;9.30;99.90
23188;DHT22;11762;59.878;17.686;2023-09-07T03:41:51;9.20;99.90
23188;DHT22;11762;59.878;17.686;2023-09-07T03:44:18;9.30;99.90
23188;DHT22;11762;59.878;17.686;2023-09-07T03:46:45;9.40;99.90
23188;DHT22;11762;59.878;17.686;2023-09-07T03:49:12;9.40;99.90
23188;DHT22;11762;59.878;17.686;2023-09-07T03:51:39;9.40;99.90
23188;DHT22;11762;59.878;17.686;2023-09-07T03:54:06;9.30;99.90
23188;DHT22;11762;59.878;17.686;2023-09-07T03:56:35;9.30;99.90
23188;DHT22;11762;59.878;17.686;2023-09-07T03:59:03;9.40;99.90
23188;DHT22;11762;59.878;17.686;2023-09-07T04:01:30;9.40;99.90
23188;DHT22;11762;59.878;17.686;2023-09-07T04:03:57;9.40;99.90
23188;DHT22;11762;59.878;17.686;2023-09-07T04:06:24;9.40;99.90
23188;DHT22;11762;59.878;17.686;2023-09-07T04:08:51;9.50;99.90
23188;DHT22;11762;59.878;17.686;2023-09-07T04:11:18;9.50;99.90
23188;DHT22;11762;59.878;17.686;2023-09-07T04:13:46;9.60;99.90
23188;DHT22;11762;59.878;17.686;2023-09-07T04:16:14;9.70;99.90
23188;DHT22;11762;59.878;17.686;2023-09-07T04:18:41;9.80;99.90
23188;DHT22;11762;59.878;17.686;2023-09-07T04:21:09;9.80;99.90
23188;DHT22;11762;59.878;17.686;2023-09-07T04:23:35;9.90;99.90
23188;DHT22;11762;59.878;17.686;2023-09-07T04:26:06;9.80;99.90
23188;DHT22;11762;59.878;17.686;2023-09-07T04:28:33;9.90;99.90
23188;DHT22;11762;59.878;17.686;2023-09-07T04:31:02;9.90;99.90
23188;DHT22;11762;59.878;17.686;2023-09-07T04:33:30;10.00;99.90
23188;DHT22;11762;59.878;17.686;2023-09-07T04:36:07;10.00;99.90
23188;DHT22;11762;59.878;17.686;2023-09-07T04:38:34;10.10;99.90
23188;DHT22;11762;59.878;17.686;2023-09-07T04:41:06;10.20;99.90
23188;DHT22;11762;59.878;17.686;2023-09-07T04:43:33;10.30;99.90
23188;DHT22;11762;59.878;17.686;2023-09-07T04:46:01;10.40;99.90
23188;DHT22;11762;59.878;17.686;2023-09-07T04:48:28;10.40;99.90
23188;DHT22;11762;59.878;17.686;2023-09-07T04:50:59;10.50;99.90
23188;DHT22;11762;59.878;17.686;2023-09-07T04:53:27;10.60;99.90
23188;DHT22;11762;59.878;17.686;2023-09-07T04:55:54;10.70;99.90
23188;DHT22;11762;59.878;17.686;2023-09-07T04:58:21;10.80;99.90
23188;DHT22;11762;59.878;17.686;2023-09-07T05:00:48;10.90;99.90
23188;DHT22;11762;59.878;17.686;2023-09-07T05:03:17;11.00;99.90
23188;DHT22;11762;59.878;17.686;2023-09-07T05:05:44;11.00;99.90
23188;DHT22;11762;59.878;17.686;2023-09-07T05:08:11;11.10;99.90
23188;DHT22;11762;59.878;17.686;2023-09-07T05:10:38;11.20;99.90
23188;DHT22;11762;59.878;17.686;2023-09-07T05:13:05;11.30;99.90
23188;DHT22;11762;59.878;17.686;2023-09-07T05:15:32;11.40;99.90
23188;DHT22;11762;59.878;17.686;2023-09-07T05:17:59;11.50;99.90
23188;DHT22;11762;59.878;17.686;2023-09-07T05:20:30;11.60;99.90
23188;DHT22;11762;59.878;17.686;2023-09-07T05:22:57;11.70;99.90
23188;DHT22;11762;59.878;17.686;2023-09-07T05:25:24;11.80;99.90
23188;DHT22;11762;59.878;17.686;2023-09-07T05:27:51;11.80;99.90
23188;DHT22;11762;59.878;17.686;2023-09-07T05:30:18;11.90;99.90
23188;DHT22;11762;59.878;17.686;2023-09-07T05:32:45;12.10;99.90
23188;DHT22;11762;59.878;17.686;2023-09-07T05:35:11;12.30;99.90
23188;DHT22;11762;59.878;17.686;2023-09-07T05:37:42;12.40;99.90
23188;DHT22;11762;59.878;17.686;2023-09-07T05:40:10;12.60;99.90
23188;DHT22;11762;59.878;17.686;2023-09-07T05:42:38;12.70;99.90
23188;DHT22;11762;59.878;17.686;2023-09-07T05:45:06;12.80;99.90
23188;DHT22;11762;59.878;17.686;2023-09-07T05:47:33;13.00;99.90
23188;DHT22;11762;59.878;17.686;2023-09-07T05:50:00;13.10;99.90
23188;DHT22;11762;59.878;17.686;2023-09-07T05:52:27;13.20;99.90
23188;DHT22;11762;59.878;17.686;2023-09-07T05:54:55;13.30;99.90
23188;DHT22;11762;59.878;17.686;2023-09-07T05:57:22;13.40;99.90
23188;DHT22;11762;59.878;17.686;2023-09-07T05:59:49;13.50;99.90
23188;DHT22;11762;59.878;17.686;2023-09-07T06:02:16;13.70;99.90
23188;DHT22;11762;59.878;17.686;2023-09-07T06:04:43;13.80;99.90
23188;DHT22;11762;59.878;17.686;2023-09-07T06:07:10;14.00;99.90
23188;DHT22;11762;59.878;17.686;2023-09-07T06:09:37;14.20;99.90
23188;DHT22;11762;59.878;17.686;2023-09-07T06:12:06;14.20;99.90
23188;DHT22;11762;59.878;17.686;2023-09-07T06:14:33;14.40;99.90
23188;DHT22;11762;59.878;17.686;2023-09-07T06:17:00;14.60;99.90
23188;DHT22;11762;59.878;17.686;2023-09-07T06:19:27;14.70;99.90
23188;DHT22;11762;59.878;17.686;2023-09-07T06:21:54;14.80;99.90
23188;DHT22;11762;59.878;17.686;2023-09-07T06:24:21;14.90;99.90
23188;DHT22;11762;59.878;17.686;2023-09-07T06:26:48;15.00;99.90
23188;DHT22;11762;59.878;17.686;2023-09-07T06:29:16;15.00;99.90
23188;DHT22;11762;59.878;17.686;2023-09-07T06:31:43;15.10;99.90
23188;DHT22;11762;59.878;17.686;2023-09-07T06:34:10;15.20;99.90
23188;DHT22;11762;59.878;17.686;2023-09-07T06:36:37;15.30;99.90
23188;DHT22;11762;59.878;17.686;2023-09-07T06:39:04;15.30;99.90
23188;DHT22;11762;59.878;17.686;2023-09-07T06:41:31;15.30;99.90
23188;DHT22;11762;59.878;17.686;2023-09-07T06:43:58;15.40;99.90
23188;DHT22;11762;59.878;17.686;2023-09-07T06:46:27;15.60;99.90
23188;DHT22;11762;59.878;17.686;2023-09-07T06:48:54;15.70;99.90
23188;DHT22;11762;59.878;17.686;2023-09-07T06:51:21;15.80;99.90
23188;DHT22;11762;59.878;17.686;2023-09-07T06:53:48;15.90;99.90
23188;DHT22;11762;59.878;17.686;2023-09-07T06:56:16;15.90;99.90
23188;DHT22;11762;59.878;17.686;2023-09-07T06:58:43;16.00;99.90
23188;DHT22;11762;59.878;17.686;2023-09-07T07:01:10;16.10;99.90
23188;DHT22;11762;59.878;17.686;2023-09-07T07:03:38;16.10;99.90
23188;DHT22;11762;59.878;17.686;2023-09-07T07:06:05;16.20;99.90
23188;DHT22;11762;59.878;17.686;2023-09-07T07:08:32;16.30;99.90
23188;DHT22;11762;59.878;17.686;2023-09-07T07:10:59;16.30;99.90
23188;DHT22;11762;59.878;17.686;2023-09-07T07:13:26;16.40;99.90
23188;DHT22;11762;59.878;17.686;2023-09-07T07:15:53;16.60;99.90
23188;DHT22;11762;59.878;17.686;2023-09-07T07:18:20;16.70;99.90
23188;DHT22;11762;59.878;17.686;2023-09-07T07:20:49;16.80;99.90
23188;DHT22;11762;59.878;17.686;2023-09-07T07:23:17;17.00;99.90
23188;DHT22;11762;59.878;17.686;2023-09-07T07:25:44;17.00;99.90
23188;DHT22;11762;59.878;17.686;2023-09-07T07:28:11;17.10;99.90
23188;DHT22;11762;59.878;17.686;2023-09-07T07:30:39;17.20;99.90
23188;DHT22;11762;59.878;17.686;2023-09-07T07:33:07;17.20;99.90
23188;DHT22;11762;59.878;17.686;2023-09-07T07:35:34;17.20;99.90
23188;DHT22;11762;59.878;17.686;2023-09-07T07:38:03;17.30;99.90
23188;DHT22;11762;59.878;17.686;2023-09-07T07:40:30;17.40;99.90
23188;DHT22;11762;59.878;17.686;2023-09-07T07:42:57;17.50;99.90
23188;DHT22;11762;59.878;17.686;2023-09-07T07:45:24;17.60;99.90
23188;DHT22;11762;59.878;17.686;2023-09-07T07:47:51;17.80;99.90
23188;DHT22;11762;59.878;17.686;2023-09-07T07:50:18;17.80;99.90
23188;DHT22;11762;59.878;17.686;2023-09-07T07:52:45;17.80;99.90
23188;DHT22;11762;59.878;17.686;2023-09-07T07:55:14;17.90;99.90
23188;DHT22;11762;59.878;17.686;2023-09-07T07:57:41;18.10;99.90
23188;DHT22;11762;59.878;17.686;2023-09-07T08:00:08;18.20;99.90
23188;DHT22;11762;59.878;17.686;2023-09-07T08:02:35;18.30;99.90
23188;DHT22;11762;59.878;17.686;2023-09-07T08:05:03;18.40;99.90
23188;DHT22;11762;59.878;17.686;2023-09-07T08:07:31;18.40;99.90
23188;DHT22;11762;59.878;17.686;2023-09-07T08:09:57;18.40;99.90
23188;DHT22;11762;59.878;17.686;2023-09-07T08:12:26;18.50;99.90
23188;DHT22;11762;59.878;17.686;2023-09-07T08:14:54;18.60;99.90
23188;DHT22;11762;59.878;17.686;2023-09-07T08:17:21;18.70;99.90
23188;DHT22;11762;59.878;17.686;2023-09-07T08:19:48;18.70;99.90
23188;DHT22;11762;59.878;17.686;2023-09-07T08:22:20;18.80;99.90
23188;DHT22;11762;59.878;17.686;2023-09-07T08:24:47;18.90;99.90
23188;DHT22;11762;59.878;17.686;2023-09-07T08:27:16;18.90;99.90
23188;DHT22;11762;59.878;17.686;2023-09-07T08:29:46;19.00;99.90
23188;DHT22;11762;59.878;17.686;2023-09-07T08:32:17;18.90;99.90
23188;DHT22;11762;59.878;17.686;2023-09-07T08:34:44;18.90;99.90
23188;DHT22;11762;59.878;17.686;2023-09-07T08:37:11;19.00;99.90
23188;DHT22;11762;59.878;17.686;2023-09-07T08:39:38;19.00;99.90
23188;DHT22;11762;59.878;17.686;2023-09-07T08:42:06;19.00;99.90
23188;DHT22;11762;59.878;17.686;2023-09-07T08:44:34;19.10;99.90
23188;DHT22;11762;59.878;17.686;2023-09-07T08:47:05;19.20;99.90
23188;DHT22;11762;59.878;17.686;2023-09-07T08:49:32;19.20;99.90
23188;DHT22;11762;59.878;17.686;2023-09-07T08:52:02;19.30;99.90
23188;DHT22;11762;59.878;17.686;2023-09-07T08:54:30;19.30;99.90
23188;DHT22;11762;59.878;17.686;2023-09-07T08:57:01;19.40;99.90
23188;DHT22;11762;59.878;17.686;2023-09-07T08:59:29;19.40;99.90
23188;DHT22;11762;59.878;17.686;2023-09-07T09:01:57;19.50;99.90
23188;DHT22;11762;59.878;17.686;2023-09-07T09:04:26;19.50;99.90
23188;DHT22;11762;59.878;17.686;2023-09-07T09:06:53;19.60;99.90
23188;DHT22;11762;59.878;17.686;2023-09-07T09:09:24;19.50;99.90
23188;DHT22;11762;59.878;17.686;2023-09-07T09:11:51;19.50;99.90
23188;DHT22;11762;59.878;17.686;2023-09-07T09:14:18;19.40;99.90
23188;DHT22;11762;59.878;17.686;2023-09-07T09:16:50;19.20;99.90
23188;DHT22;11762;59.878;17.686;2023-09-07T09:19:17;19.10;99.90
23188;DHT22;11762;59.878;17.686;2023-09-07T09:21:46;19.10;99.90
23188;DHT22;11762;59.878;17.686;2023-09-07T09:24:16;19.30;99.90
23188;DHT22;11762;59.878;17.686;2023-09-07T09:26:43;19.50;99.90
23188;DHT22;11762;59.878;17.686;2023-09-07T09:29:10;19.70;99.90
23188;DHT22;11762;59.878;17.686;2023-09-07T09:31:37;19.90;99.90
23188;DHT22;11762;59.878;17.686;2023-09-07T09:34:04;19.90;99.90
23188;DHT22;11762;59.878;17.686;2023-09-07T09:36:35;20.00;99.90
23188;DHT22;11762;59.878;17.686;2023-09-07T09:39:04;20.00;99.90
23188;DHT22;11762;59.878;17.686;2023-09-07T09:41:32;20.10;99.90
23188;DHT22;11762;59.878;17.686;2023-09-07T09:44:01;20.10;99.90
23188;DHT22;11762;59.878;17.686;2023-09-07T09:46:31;20.10;99.90
23188;DHT22;11762;59.878;17.686;2023-09-07T09:48:59;20.20;99.90
23188;DHT22;11762;59.878;17.686;2023-09-07T09:51:27;20.20;99.90
23188;DHT22;11762;59.878;17.686;2023-09-07T09:53:55;20.20;99.90
23188;DHT22;11762;59.878;17.686;2023-09-07T09:56:24;20.20;99.90
23188;DHT22;11762;59.878;17.686;2023-09-07T09:58:51;20.20;99.90
23188;DHT22;11762;59.878;17.686;2023-09-07T10:01:19;20.40;99.90
23188;DHT22;11762;59.878;17.686;2023-09-07T10:03:49;20.50;99.90
23188;DHT22;11762;59.878;17.686;2023-09-07T10:06:23;20.60;99.90
23188;DHT22;11762;59.878;17.686;2023-09-07T10:08:58;20.60;99.90
23188;DHT22;11762;59.878;17.686;2023-09-07T10:11:31;20.60;99.90
23188;DHT22;11762;59.878;17.686;2023-09-07T10:13:59;20.70;99.90
23188;DHT22;11762;59.878;17.686;2023-09-07T10:16:28;20.70;99.90
23188;DHT22;11762;59.878;17.686;2023-09-07T10:18:55;20.90;99.90
23188;DHT22;11762;59.878;17.686;2023-09-07T10:21:25;21.00;99.90
23188;DHT22;11762;59.878;17.686;2023-09-07T10:23:52;21.10;99.90
23188;DHT22;11762;59.878;17.686;2023-09-07T10:26:21;21.00;99.90
23188;DHT22;11762;59.878;17.686;2023-09-07T10:28:58;21.00;99.90
23188;DHT22;11762;59.878;17.686;2023-09-07T10:31:26;20.80;99.90
23188;DHT22;11762;59.878;17.686;2023-09-07T10:33:53;20.80;99.90
23188;DHT22;11762;59.878;17.686;2023-09-07T10:36:21;20.80;99.90
23188;DHT22;11762;59.878;17.686;2023-09-07T10:38:48;20.70;99.90
23188;DHT22;11762;59.878;17.686;2023-09-07T10:41:19;20.60;99.90
23188;DHT22;11762;59.878;17.686;2023-09-07T10:43:49;20.50;99.90
23188;DHT22;11762;59.878;17.686;2023-09-07T10:46:18;20.60;99.90
23188;DHT22;11762;59.878;17.686;2023-09-07T10:48:49;20.60;99.90
23188;DHT22;11762;59.878;17.686;2023-09-07T10:51:16;20.70;99.90
23188;DHT22;11762;59.878;17.686;2023-09-07T10:53:43;20.80;99.90
23188;DHT22;11762;59.878;17.686;2023-09-07T10:56:10;20.90;99.90
23188;DHT22;11762;59.878;17.686;2023-09-07T10:58:38;20.90;99.90
23188;DHT22;11762;59.878;17.686;2023-09-07T11:01:09;20.90;99.90
23188;DHT22;11762;59.878;17.686;2023-09-07T11:03:37;20.80;99.90
23188;DHT22;11762;59.878;17.686;2023-09-07T11:06:07;20.70;99.90
23188;DHT22;11762;59.878;17.686;2023-09-07T11:08:35;20.60;99.90
23188;DHT22;11762;59.878;17.686;2023-09-07T11:11:03;20.60;99.90
23188;DHT22;11762;59.878;17.686;2023-09-07T11:13:31;20.60;99.90
23188;DHT22;11762;59.878;17.686;2023-09-07T11:15:58;20.50;99.90
23188;DHT22;11762;59.878;17.686;2023-09-07T11:18:27;20.60;99.90
23188;DHT22;11762;59.878;17.686;2023-09-07T11:20:54;20.50;99.90
23188;DHT22;11762;59.878;17.686;2023-09-07T11:23:23;20.40;99.90
23188;DHT22;11762;59.878;17.686;2023-09-07T11:25:50;20.50;99.90
23188;DHT22;11762;59.878;17.686;2023-09-07T11:28:18;20.40;99.90
23188;DHT22;11762;59.878;17.686;2023-09-07T11:30:52;20.40;99.90
23188;DHT22;11762;59.878;17.686;2023-09-07T11:33:20;20.40;99.90
23188;DHT22;11762;59.878;17.686;2023-09-07T11:35:49;20.50;99.90
23188;DHT22;11762;59.878;17.686;2023-09-07T11:38:17;20.60;99.90
23188;DHT22;11762;59.878;17.686;2023-09-07T11:40:44;20.70;99.90
23188;DHT22;11762;59.878;17.686;2023-09-07T11:43:11;20.70;99.90
23188;DHT22;11762;59.878;17.686;2023-09-07T11:45:39;20.70;99.90
23188;DHT22;11762;59.878;17.686;2023-09-07T11:48:06;20.80;99.90
23188;DHT22;11762;59.878;17.686;2023-09-07T11:50:35;20.90;99.90
23188;DHT22;11762;59.878;17.686;2023-09-07T11:53:04;20.80;99.90
23188;DHT22;11762;59.878;17.686;2023-09-07T11:55:31;20.90;99.90
23188;DHT22;11762;59.878;17.686;2023-09-07T11:57:58;21.00;99.90
23188;DHT22;11762;59.878;17.686;2023-09-07T12:00:25;21.10;99.90
23188;DHT22;11762;59.878;17.686;2023-09-07T12:02:52;21.10;99.90
23188;DHT22;11762;59.878;17.686;2023-09-07T12:05:19;21.20;99.90
23188;DHT22;11762;59.878;17.686;2023-09-07T12:07:46;21.20;99.90
23188;DHT22;11762;59.878;17.686;2023-09-07T12:10:14;21.20;99.90
23188;DHT22;11762;59.878;17.686;2023-09-07T12:12:42;21.30;99.90
23188;DHT22;11762;59.878;17.686;2023-09-07T12:15:10;21.20;99.90
23188;DHT22;11762;59.878;17.686;2023-09-07T12:17:38;20.90;99.90
23188;DHT22;11762;59.878;17.686;2023-09-07T12:20:06;20.60;99.90
23188;DHT22;11762;59.878;17.686;2023-09-07T12:22:36;20.50;99.90
23188;DHT22;11762;59.878;17.686;2023-09-07T12:25:04;20.40;99.90
23188;DHT22;11762;59.878;17.686;2023-09-07T12:27:33;20.40;99.90
23188;DHT22;11762;59.878;17.686;2023-09-07T12:30:01;20.50;99.90
23188;DHT22;11762;59.878;17.686;2023-09-07T12:32:32;20.60;99.90
23188;DHT22;11762;59.878;17.686;2023-09-07T12:34:59;20.70;99.90
23188;DHT22;11762;59.878;17.686;2023-09-07T12:37:26;20.90;99.90
23188;DHT22;11762;59.878;17.686;2023-09-07T12:39:53;21.00;99.90
23188;DHT22;11762;59.878;17.686;2023-09-07T12:42:20;21.00;99.90
23188;DHT22;11762;59.878;17.686;2023-09-07T12:44:49;21.10;99.90
23188;DHT22;11762;59.878;17.686;2023-09-07T12:47:16;21.10;99.90
23188;DHT22;11762;59.878;17.686;2023-09-07T12:49:43;21.10;99.90
23188;DHT22;11762;59.878;17.686;2023-09-07T12:52:10;21.30;99.90
23188;DHT22;11762;59.878;17.686;2023-09-07T12:54:38;21.30;99.90
23188;DHT22;11762;59.878;17.686;2023-09-07T12:57:05;21.40;99.90
23188;DHT22;11762;59.878;17.686;2023-09-07T12:59:33;21.40;99.90
23188;DHT22;11762;59.878;17.686;2023-09-07T13:02:01;21.30;99.90
23188;DHT22;11762;59.878;17.686;2023-09-07T13:04:28;21.10;99.90
23188;DHT22;11762;59.878;17.686;2023-09-07T13:06:55;21.20;99.90
23188;DHT22;11762;59.878;17.686;2023-09-07T13:09:22;21.10;99.90
23188;DHT22;11762;59.878;17.686;2023-09-07T13:11:49;21.00;99.90
23188;DHT22;11762;59.878;17.686;2023-09-07T13:14:16;20.90;99.90
23188;DHT22;11762;59.878;17.686;2023-09-07T13:16:43;20.90;99.90
23188;DHT22;11762;59.878;17.686;2023-09-07T13:19:12;20.90;99.90
23188;DHT22;11762;59.878;17.686;2023-09-07T13:21:39;20.80;99.90
23188;DHT22;11762;59.878;17.686;2023-09-07T13:24:05;20.90;99.90
23188;DHT22;11762;59.878;17.686;2023-09-07T13:26:33;20.90;99.90
23188;DHT22;11762;59.878;17.686;2023-09-07T13:29:00;20.90;99.90
23188;DHT22;11762;59.878;17.686;2023-09-07T13:31:27;20.80;99.90
23188;DHT22;11762;59.878;17.686;2023-09-07T13:33:53;20.60;99.90
23188;DHT22;11762;59.878;17.686;2023-09-07T13:36:22;20.60;99.90
23188;DHT22;11762;59.878;17.686;2023-09-07T13:38:49;20.50;99.90
23188;DHT22;11762;59.878;17.686;2023-09-07T13:41:16;20.60;99.90
23188;DHT22;11762;59.878;17.686;2023-09-07T13:43:43;20.60;99.90
23188;DHT22;11762;59.878;17.686;2023-09-07T13:46:10;20.50;99.90
23188;DHT22;11762;59.878;17.686;2023-09-07T13:48:36;20.50;99.90
23188;DHT22;11762;59.878;17.686;2023-09-07T13:51:03;20.50;99.90
23188;DHT22;11762;59.878;17.686;2023-09-07T13:53:33;20.50;99.90
23188;DHT22;11762;59.878;17.686;2023-09-07T13:56:00;20.50;99.90
23188;DHT22;11762;59.878;17.686;2023-09-07T13:58:27;20.50;99.90
23188;DHT22;11762;59.878;17.686;2023-09-07T14:00:54;20.50;99.90
23188;DHT22;11762;59.878;17.686;2023-09-07T14:03:20;20.60;99.90
23188;DHT22;11762;59.878;17.686;2023-09-07T14:05:48;20.60;99.90
23188;DHT22;11762;59.878;17.686;2023-09-07T14:08:15;20.60;99.90
23188;DHT22;11762;59.878;17.686;2023-09-07T14:10:44;20.60;99.90
23188;DHT22;11762;59.878;17.686;2023-09-07T14:13:11;20.50;99.90
23188;DHT22;11762;59.878;17.686;2023-09-07T14:15:38;20.40;99.90
23188;DHT22;11762;59.878;17.686;2023-09-07T14:18:05;20.40;99.90
23188;DHT22;11762;59.878;17.686;2023-09-07T14:20:33;20.40;99.90
23188;DHT22;11762;59.878;17.686;2023-09-07T14:23:00;20.40;99.90
23188;DHT22;11762;59.878;17.686;2023-09-07T14:25:27;20.30;99.90
23188;DHT22;11762;59.878;17.686;2023-09-07T14:27:56;20.40;99.90
23188;DHT22;11762;59.878;17.686;2023-09-07T14:30:22;20.30;99.90
23188;DHT22;11762;59.878;17.686;2023-09-07T14:32:49;20.40;99.90
23188;DHT22;11762;59.878;17.686;2023-09-07T14:35:16;20.30;99.90
23188;DHT22;11762;59.878;17.686;2023-09-07T14:37:43;20.40;99.90
23188;DHT22;11762;59.878;17.686;2023-09-07T14:40:11;20.50;99.90
23188;DHT22;11762;59.878;17.686;2023-09-07T14:42:39;20.40;99.90
23188;DHT22;11762;59.878;17.686;2023-09-07T14:45:08;20.50;99.90
23188;DHT22;11762;59.878;17.686;2023-09-07T14:47:35;20.50;99.90
23188;DHT22;11762;59.878;17.686;2023-09-07T14:50:03;20.50;99.90
23188;DHT22;11762;59.878;17.686;2023-09-07T14:52:30;20.50;99.90
23188;DHT22;11762;59.878;17.686;2023-09-07T14:54:58;20.40;99.90
23188;DHT22;11762;59.878;17.686;2023-09-07T14:57:25;20.50;99.90
23188;DHT22;11762;59.878;17.686;2023-09-07T14:59:52;20.40;99.90
23188;DHT22;11762;59.878;17.686;2023-09-07T15:02:20;20.40;99.90
23188;DHT22;11762;59.878;17.686;2023-09-07T15:04:47;20.40;99.90
23188;DHT22;11762;59.878;17.686;2023-09-07T15:07:14;20.40;99.90
23188;DHT22;11762;59.878;17.686;2023-09-07T15:09:41;20.40;99.90
23188;DHT22;11762;59.878;17.686;2023-09-07T15:12:08;20.50;99.90
23188;DHT22;11762;59.878;17.686;2023-09-07T15:14:36;20.50;99.90
23188;DHT22;11762;59.878;17.686;2023-09-07T15:17:03;20.50;99.90
23188;DHT22;11762;59.878;17.686;2023-09-07T15:19:32;20.40;99.90
23188;DHT22;11762;59.878;17.686;2023-09-07T15:21:59;20.40;99.90